Daniels, Maryland
Current Conditions -  °F | °C
As of 6:54 AM on Thursday 29 Jan 2015 (Local Time) from KBWI Reporting Station
Few Clouds Few Clouds  
Wind Chill: 18°   Ceiling: Unl
Heat Index: 18°   Visibility: 10mi
Dew Point: 10°   Wind: 0mph
Humidity: 71%   Direction: NA
Pressure: 30.33"   Gusts: NA
Location:  39.2601°N, 76.7979°W
Report Text: KBWI 291154Z 00000KT 10SM FEW250 M08/M12 A3033 RMK AO2 SLP274 T10781122 11050 21083 53002
Loading
Personal Weather Stations






























Interactive Weather Map New forecast layout! Learn more

10-Day Weather Forecast

Advertisements
Track Severe Weather on mobile